Time;durP1;ratioP1;P1;durP2;ratioP2;P2;SDS_P1;SDS_P2;PMS_P1;PMS_P2;Temp;Humidity;BMP_temperature;BMP_pressure;BME280_temperature;BME280_humidity;BME280_pressure;Samples;Min_cycle;Max_cycle;Signal;HPM_P1;HPM_P2
2022/08/21 00:00:12;;;;;;;0.40;0.40;;;;;;;;;;5043754;28;20033;-46
2022/08/21 00:02:46;;;;;;;0.35;0.35;;;;;;;;;;5043451;28;20029;-45
2022/08/21 00:05:11;;;;;;;0.90;0.50;;;;;;;;;;5046851;28;20055;-45
2022/08/21 00:07:37;;;;;;;0.90;0.52;;;;;;;;;;5059616;28;20420;-47
2022/08/21 00:10:04;;;;;;;1.65;0.50;;;;;;;;;;5047905;28;20033;-46
2022/08/21 00:12:31;;;;;;;3.15;0.30;;;;;;;;;;5044411;28;20477;-47
2022/08/21 00:14:57;;;;;;;2.08;0.40;;;;;;;;;;5043510;28;20458;-44
2022/08/21 00:17:23;;;;;;;0.88;0.40;;;;;;;;;;5044811;28;20025;-46
2022/08/21 00:19:48;;;;;;;1.00;0.50;;;;;;;;;;5047402;28;20462;-47
2022/08/21 00:22:14;;;;;;;0.50;0.50;;;;;;;;;;5045252;28;20120;-44
2022/08/21 00:24:40;;;;;;;0.30;0.30;;;;;;;;;;5042877;28;20054;-49
2022/08/21 00:27:06;;;;;;;0.98;0.22;;;;;;;;;;5049354;28;20032;-45
2022/08/21 00:29:31;;;;;;;3.53;0.40;;;;;;;;;;5044537;28;20029;-47
2022/08/21 00:31:58;;;;;;;0.40;0.40;;;;;;;;;;5045427;28;20025;-46
2022/08/21 00:34:24;;;;;;;1.25;0.50;;;;;;;;;;5044480;28;20422;-44
2022/08/21 00:36:50;;;;;;;0.40;0.40;;;;;;;;;;5041497;28;20029;-46
2022/08/21 00:39:16;;;;;;;0.40;0.40;;;;;;;;;;5044836;28;20029;-47
2022/08/21 00:41:43;;;;;;;0.40;0.30;;;;;;;;;;5042768;28;20021;-44
2022/08/21 00:44:11;;;;;;;0.28;0.28;;;;;;;;;;5044382;28;20056;-47
2022/08/21 00:46:37;;;;;;;0.30;0.30;;;;;;;;;;5043645;28;20658;-45
2022/08/21 00:49:04;;;;;;;0.30;0.30;;;;;;;;;;5045549;28;20105;-44
2022/08/21 00:51:45;;;;;;;1.10;0.47;;;;;;;;;;5045008;28;20078;-46
2022/08/21 00:54:12;;;;;;;0.60;0.40;;;;;;;;;;5045209;28;20040;-44
2022/08/21 00:56:37;;;;;;;0.47;0.47;;;;;;;;;;5043983;28;20029;-44
2022/08/21 00:59:04;;;;;;;0.35;0.35;;;;;;;;;;5044684;28;20667;-47
2022/08/21 01:01:30;;;;;;;2.17;0.40;;;;;;;;;;5044543;28;20034;-48
2022/08/21 01:03:56;;;;;;;0.40;0.40;;;;;;;;;;5045070;28;20117;-46
2022/08/21 01:06:22;;;;;;;0.40;0.40;;;;;;;;;;5046447;28;20067;-44
2022/08/21 01:08:48;;;;;;;0.40;0.40;;;;;;;;;;5045874;28;20115;-45
2022/08/21 01:11:15;;;;;;;0.65;0.45;;;;;;;;;;5028644;28;20040;-48
2022/08/21 01:13:45;;;;;;;3.13;0.60;;;;;;;;;;5043218;28;20385;-46
2022/08/21 01:16:15;;;;;;;0.30;0.30;;;;;;;;;;5045307;28;20576;-45
2022/08/21 01:18:41;;;;;;;1.63;0.40;;;;;;;;;;5042629;28;20430;-46
2022/08/21 01:21:11;;;;;;;0.40;0.30;;;;;;;;;;5043534;28;20500;-44
2022/08/21 01:23:38;;;;;;;2.05;0.40;;;;;;;;;;5044312;28;20685;-44
2022/08/21 01:26:05;;;;;;;1.02;0.50;;;;;;;;;;5042514;28;20025;-43
2022/08/21 01:28:37;;;;;;;2.78;0.70;;;;;;;;;;5045955;28;20113;-44
2022/08/21 01:31:05;;;;;;;0.50;0.50;;;;;;;;;;5046780;28;20071;-44
2022/08/21 01:33:31;;;;;;;3.42;0.60;;;;;;;;;;5043474;28;20022;-46
2022/08/21 01:35:57;;;;;;;4.63;0.50;;;;;;;;;;5046833;28;20062;-43
2022/08/21 01:38:24;;;;;;;0.45;0.45;;;;;;;;;;5045353;28;20129;-45
2022/08/21 01:40:49;;;;;;;0.60;0.50;;;;;;;;;;5042759;28;20036;-45
2022/08/21 01:43:15;;;;;;;0.45;0.38;;;;;;;;;;5045010;28;20071;-44
2022/08/21 01:45:41;;;;;;;1.42;0.47;;;;;;;;;;5044470;28;20032;-43
2022/08/21 01:48:06;;;;;;;0.47;0.47;;;;;;;;;;5046594;28;20033;-46
2022/08/21 01:50:32;;;;;;;1.33;0.60;;;;;;;;;;5046559;28;20059;-46
2022/08/21 01:52:58;;;;;;;3.15;0.40;;;;;;;;;;5042715;28;20056;-45
2022/08/21 01:55:24;;;;;;;1.95;0.30;;;;;;;;;;5041296;28;20041;-45
2022/08/21 01:57:50;;;;;;;0.38;0.38;;;;;;;;;;5044830;28;20029;-45
2022/08/21 02:00:19;;;;;;;1.75;0.63;;;;;;;;;;5040516;28;20025;-44
2022/08/21 02:02:45;;;;;;;1.15;0.52;;;;;;;;;;5044349;28;20635;-44
2022/08/21 02:05:12;;;;;;;0.70;0.70;;;;;;;;;;5044763;28;20032;-46
2022/08/21 02:07:44;;;;;;;2.75;0.52;;;;;;;;;;5046925;28;20444;-46
2022/08/21 02:10:12;;;;;;;0.95;0.50;;;;;;;;;;5043361;28;20115;-43
2022/08/21 02:12:38;;;;;;;0.50;0.40;;;;;;;;;;5042082;28;20108;-44
2022/08/21 02:15:05;;;;;;;0.30;0.30;;;;;;;;;;5041766;28;20029;-45
2022/08/21 02:17:57;;;;;;;0.40;0.40;;;;;;;;;;5044663;28;20029;-46
2022/08/21 02:20:30;;;;;;;3.05;0.55;;;;;;;;;;5043881;28;20053;-46
2022/08/21 02:22:56;;;;;;;2.40;0.43;;;;;;;;;;5040618;28;20025;-45
2022/08/21 02:25:24;;;;;;;3.63;0.60;;;;;;;;;;5044076;28;20029;-45
2022/08/21 02:27:50;;;;;;;0.68;0.68;;;;;;;;;;5043437;28;20074;-46
2022/08/21 02:30:26;;;;;;;2.58;0.50;;;;;;;;;;5043991;28;20116;-44
2022/08/21 02:32:52;;;;;;;0.50;0.50;;;;;;;;;;5027346;28;20032;-46
2022/08/21 02:35:19;;;;;;;0.73;0.50;;;;;;;;;;5045276;28;20063;-44
2022/08/21 02:38:07;;;;;;;0.43;0.40;;;;;;;;;;5046126;28;20029;-44
2022/08/21 02:40:36;;;;;;;1.00;0.50;;;;;;;;;;5041075;28;20076;-47
2022/08/21 02:43:05;;;;;;;5.72;0.80;;;;;;;;;;5045135;28;20055;-45
2022/08/21 02:45:31;;;;;;;1.42;0.43;;;;;;;;;;5043930;28;20030;-44
2022/08/21 02:48:07;;;;;;;1.65;0.50;;;;;;;;;;5041710;28;20029;-50
2022/08/21 02:50:47;;;;;;;1.10;0.85;;;;;;;;;;5033830;28;20486;-44
2022/08/21 02:53:16;;;;;;;2.08;0.47;;;;;;;;;;5038326;28;20113;-45
2022/08/21 02:55:44;;;;;;;0.40;0.40;;;;;;;;;;5040907;28;20029;-44
2022/08/21 02:58:12;;;;;;;2.40;0.63;;;;;;;;;;5040082;28;20037;-43
2022/08/21 03:00:38;;;;;;;1.42;0.43;;;;;;;;;;5042706;28;20049;-46
2022/08/21 03:03:05;;;;;;;0.60;0.60;;;;;;;;;;5039412;28;20025;-44
2022/08/21 03:05:31;;;;;;;0.30;0.30;;;;;;;;;;5041937;28;20501;-44
2022/08/21 03:07:59;;;;;;;4.00;0.55;;;;;;;;;;5046497;28;20028;-44
2022/08/21 03:10:25;;;;;;;3.97;0.73;;;;;;;;;;5047909;28;20401;-43
2022/08/21 03:12:51;;;;;;;0.73;0.40;;;;;;;;;;5048020;28;20029;-47
2022/08/21 03:15:20;;;;;;;0.88;0.57;;;;;;;;;;5045928;28;20025;-45
2022/08/21 03:17:46;;;;;;;1.92;0.75;;;;;;;;;;5044348;28;20424;-47
2022/08/21 03:20:15;;;;;;;4.32;0.60;;;;;;;;;;5046154;28;20036;-50
2022/08/21 03:22:41;;;;;;;0.40;0.40;;;;;;;;;;5047290;28;20040;-44
2022/08/21 03:25:08;;;;;;;0.95;0.65;;;;;;;;;;5041852;28;20024;-48
2022/08/21 03:27:34;;;;;;;0.68;0.68;;;;;;;;;;5047760;28;20397;-46
2022/08/21 03:30:00;;;;;;;2.05;0.60;;;;;;;;;;5045450;28;20036;-49
2022/08/21 03:32:26;;;;;;;1.60;0.70;;;;;;;;;;5041546;28;20028;-47
2022/08/21 03:34:51;;;;;;;0.98;0.75;;;;;;;;;;5041488;28;20041;-47
2022/08/21 03:37:17;;;;;;;0.85;0.57;;;;;;;;;;5044784;28;20033;-47
2022/08/21 03:39:44;;;;;;;1.42;0.57;;;;;;;;;;5046797;28;20025;-46
2022/08/21 03:42:11;;;;;;;0.60;0.60;;;;;;;;;;5046213;28;20420;-46
2022/08/21 03:44:37;;;;;;;0.70;0.60;;;;;;;;;;5047526;28;20025;-46
2022/08/21 03:47:03;;;;;;;1.52;0.60;;;;;;;;;;5048588;28;20029;-45
2022/08/21 03:49:29;;;;;;;0.88;0.60;;;;;;;;;;5046603;28;20040;-45
2022/08/21 03:51:55;;;;;;;2.00;0.60;;;;;;;;;;5047804;28;20044;-50
2022/08/21 03:54:20;;;;;;;0.75;0.75;;;;;;;;;;5045274;28;20086;-44
2022/08/21 03:56:47;;;;;;;0.65;0.60;;;;;;;;;;5046013;28;20029;-43
2022/08/21 03:59:12;;;;;;;0.73;0.50;;;;;;;;;;5044241;28;20552;-51
2022/08/21 04:01:38;;;;;;;0.60;0.60;;;;;;;;;;5047609;28;20033;-46
2022/08/21 04:04:05;;;;;;;0.88;0.85;;;;;;;;;;5048350;28;20029;-45
2022/08/21 04:06:33;;;;;;;0.60;0.60;;;;;;;;;;5045347;28;20074;-44
2022/08/21 04:08:58;;;;;;;1.20;0.80;;;;;;;;;;5046502;28;20100;-45
2022/08/21 04:11:24;;;;;;;1.15;0.77;;;;;;;;;;5045606;28;20335;-44
2022/08/21 04:13:50;;;;;;;1.00;0.90;;;;;;;;;;5047683;28;20103;-50
2022/08/21 04:16:16;;;;;;;1.17;0.60;;;;;;;;;;5046090;28;20432;-50
2022/08/21 04:18:42;;;;;;;1.67;0.63;;;;;;;;;;5045857;28;20045;-49
2022/08/21 04:21:10;;;;;;;0.70;0.57;;;;;;;;;;5040658;28;20029;-44
2022/08/21 04:23:36;;;;;;;0.98;0.60;;;;;;;;;;5042882;28;20040;-47
2022/08/21 04:26:02;;;;;;;0.85;0.60;;;;;;;;;;5044908;28;20078;-47
2022/08/21 04:28:28;;;;;;;0.50;0.50;;;;;;;;;;5045863;28;20025;-44
2022/08/21 04:30:54;;;;;;;0.85;0.70;;;;;;;;;;5041322;28;20545;-43
2022/08/21 04:33:21;;;;;;;4.00;0.80;;;;;;;;;;5046120;28;20098;-43
2022/08/21 04:35:48;;;;;;;1.85;0.68;;;;;;;;;;5045156;28;20029;-44
2022/08/21 04:38:14;;;;;;;0.70;0.50;;;;;;;;;;5045154;28;20412;-44
2022/08/21 04:40:40;;;;;;;1.35;0.55;;;;;;;;;;5046286;28;20098;-46
2022/08/21 04:43:09;;;;;;;1.65;0.82;;;;;;;;;;5045213;28;20112;-45
2022/08/21 04:45:44;;;;;;;1.00;0.70;;;;;;;;;;5044318;28;20041;-43
2022/08/21 04:48:12;;;;;;;0.75;0.73;;;;;;;;;;5046246;28;20029;-43
2022/08/21 04:50:54;;;;;;;0.63;0.60;;;;;;;;;;5045861;28;20504;-46
2022/08/21 04:53:24;;;;;;;1.55;0.82;;;;;;;;;;5041814;28;20036;-44
2022/08/21 04:55:52;;;;;;;2.33;0.80;;;;;;;;;;5045436;28;20041;-43
2022/08/21 04:58:20;;;;;;;3.15;0.80;;;;;;;;;;5046369;28;20032;-43
2022/08/21 05:00:47;;;;;;;3.03;0.90;;;;;;;;;;5044813;28;20072;-47
2022/08/21 05:03:16;;;;;;;1.85;0.80;;;;;;;;;;5043728;28;20028;-44
2022/08/21 05:05:43;;;;;;;1.05;0.80;;;;;;;;;;5042221;28;20025;-46
2022/08/21 05:08:14;;;;;;;1.05;0.80;;;;;;;;;;5042752;28;20029;-43
2022/08/21 05:10:40;;;;;;;1.98;0.90;;;;;;;;;;5045636;28;20063;-44
2022/08/21 05:13:06;;;;;;;1.40;0.80;;;;;;;;;;5044988;28;20079;-46
2022/08/21 05:15:32;;;;;;;1.40;0.77;;;;;;;;;;5043727;28;20087;-44
2022/08/21 05:17:58;;;;;;;1.20;0.80;;;;;;;;;;5043643;28;20423;-46
2022/08/21 05:20:24;;;;;;;3.05;1.00;;;;;;;;;;5041152;28;20042;-44
2022/08/21 05:22:49;;;;;;;0.98;0.70;;;;;;;;;;5046449;28;20031;-43
2022/08/21 05:25:16;;;;;;;1.67;1.10;;;;;;;;;;5044522;28;20036;-43
2022/08/21 05:27:41;;;;;;;1.90;1.08;;;;;;;;;;5046493;28;21610;-43
2022/08/21 05:30:09;;;;;;;1.90;0.70;;;;;;;;;;5042194;28;20044;-43
2022/08/21 05:32:35;;;;;;;3.00;0.77;;;;;;;;;;5042692;28;20036;-44
2022/08/21 05:35:03;;;;;;;1.15;0.80;;;;;;;;;;5043396;28;20112;-44
2022/08/21 05:37:29;;;;;;;1.00;0.90;;;;;;;;;;5044336;28;20033;-45
2022/08/21 05:39:55;;;;;;;2.10;0.80;;;;;;;;;;5044675;28;20048;-43
2022/08/21 05:42:20;;;;;;;4.00;0.98;;;;;;;;;;5046608;28;20040;-43
2022/08/21 05:44:46;;;;;;;0.70;0.70;;;;;;;;;;5039859;28;20028;-43
2022/08/21 05:47:12;;;;;;;1.45;0.85;;;;;;;;;;5046277;28;20036;-43
2022/08/21 05:49:38;;;;;;;1.08;0.90;;;;;;;;;;5041966;28;20029;-43
2022/08/21 05:52:04;;;;;;;1.42;0.90;;;;;;;;;;5046510;28;20029;-46
2022/08/21 05:54:30;;;;;;;2.78;0.93;;;;;;;;;;5058494;28;20071;-44
2022/08/21 05:56:57;;;;;;;1.85;1.02;;;;;;;;;;5026731;28;20036;-44
2022/08/21 05:59:23;;;;;;;2.33;0.98;;;;;;;;;;5043076;28;20034;-45
2022/08/21 06:01:49;;;;;;;2.63;1.00;;;;;;;;;;5043852;28;20085;-48
2022/08/21 06:04:15;;;;;;;1.58;0.80;;;;;;;;;;5046220;28;20033;-43
2022/08/21 06:06:40;;;;;;;2.60;0.85;;;;;;;;;;5043702;28;20036;-44
2022/08/21 06:09:06;;;;;;;1.13;1.00;;;;;;;;;;5043223;28;20029;-44
2022/08/21 06:11:33;;;;;;;1.33;0.95;;;;;;;;;;5045718;28;20025;-44
2022/08/21 06:13:58;;;;;;;2.35;0.82;;;;;;;;;;5044873;28;20025;-43
2022/08/21 06:16:24;;;;;;;1.40;0.70;;;;;;;;;;5042412;28;20606;-47
2022/08/21 06:18:50;;;;;;;0.80;0.80;;;;;;;;;;5044401;28;21683;-47
2022/08/21 06:21:16;;;;;;;1.08;0.98;;;;;;;;;;5044348;28;20455;-46
2022/08/21 06:23:43;;;;;;;3.90;0.88;;;;;;;;;;5044891;28;20032;-43
2022/08/21 06:26:10;;;;;;;1.13;1.00;;;;;;;;;;5043996;28;20051;-44
2022/08/21 06:28:36;;;;;;;1.23;0.65;;;;;;;;;;5041346;28;20021;-44
2022/08/21 06:31:11;;;;;;;1.17;0.90;;;;;;;;;;5041896;28;20025;-43
2022/08/21 06:33:37;;;;;;;1.58;0.95;;;;;;;;;;5045958;28;20025;-46
2022/08/21 06:36:03;;;;;;;1.83;0.70;;;;;;;;;;5047291;28;20386;-45
2022/08/21 06:38:29;;;;;;;3.20;0.90;;;;;;;;;;5048458;28;20159;-45
2022/08/21 06:40:54;;;;;;;1.80;1.08;;;;;;;;;;5050691;28;20123;-44
2022/08/21 06:43:20;;;;;;;3.70;1.00;;;;;;;;;;5046994;28;20122;-44
2022/08/21 06:45:46;;;;;;;1.70;0.88;;;;;;;;;;5046771;28;20043;-47
2022/08/21 06:48:12;;;;;;;1.10;0.98;;;;;;;;;;5047055;28;20025;-47
2022/08/21 06:50:37;;;;;;;1.88;1.17;;;;;;;;;;5043949;28;20017;-45
2022/08/21 06:53:08;;;;;;;3.53;1.13;;;;;;;;;;5049531;28;20036;-43
2022/08/21 06:55:34;;;;;;;1.20;0.85;;;;;;;;;;5045865;28;20080;-43
2022/08/21 06:58:00;;;;;;;1.20;1.10;;;;;;;;;;5050088;28;20029;-45
2022/08/21 07:00:26;;;;;;;2.90;1.48;;;;;;;;;;5045466;28;20044;-45
2022/08/21 07:02:52;;;;;;;2.20;1.17;;;;;;;;;;5046894;28;20048;-45
2022/08/21 07:05:18;;;;;;;3.70;0.90;;;;;;;;;;5049970;28;20025;-46
2022/08/21 07:07:45;;;;;;;0.70;0.60;;;;;;;;;;5048345;28;20028;-45
2022/08/21 07:10:10;;;;;;;2.00;1.00;;;;;;;;;;5044972;28;20045;-44
2022/08/21 07:12:36;;;;;;;1.98;1.10;;;;;;;;;;5047687;28;20425;-44
2022/08/21 07:15:02;;;;;;;2.35;0.80;;;;;;;;;;5044704;28;20032;-47
2022/08/21 07:17:28;;;;;;;0.65;0.65;;;;;;;;;;5044472;28;20436;-44
2022/08/21 07:19:54;;;;;;;1.65;0.90;;;;;;;;;;5037824;28;20029;-44
2022/08/21 07:22:20;;;;;;;3.38;0.95;;;;;;;;;;5042584;28;20040;-44
2022/08/21 07:24:46;;;;;;;1.40;1.00;;;;;;;;;;5045558;28;20104;-45
2022/08/21 07:27:12;;;;;;;3.58;1.23;;;;;;;;;;5044392;28;20104;-44
2022/08/21 07:29:38;;;;;;;3.30;1.20;;;;;;;;;;5044448;28;20628;-44
2022/08/21 07:32:04;;;;;;;2.13;1.00;;;;;;;;;;5047074;28;20025;-43
2022/08/21 07:34:30;;;;;;;3.28;1.00;;;;;;;;;;5046305;28;20127;-43
2022/08/21 07:36:57;;;;;;;2.55;1.08;;;;;;;;;;5045895;28;20052;-46
2022/08/21 07:39:22;;;;;;;2.22;1.50;;;;;;;;;;5039090;28;20053;-45
2022/08/21 07:41:48;;;;;;;0.85;0.73;;;;;;;;;;5040773;28;20161;-44
2022/08/21 07:44:14;;;;;;;2.72;1.08;;;;;;;;;;5036617;28;20037;-43
2022/08/21 07:46:39;;;;;;;1.63;0.88;;;;;;;;;;5043291;28;20032;-43
2022/08/21 07:49:05;;;;;;;1.45;1.00;;;;;;;;;;5045223;28;20033;-43
2022/08/21 07:51:33;;;;;;;1.20;0.90;;;;;;;;;;5041344;28;20476;-46
2022/08/21 07:54:00;;;;;;;2.92;1.20;;;;;;;;;;5047216;28;20025;-44
2022/08/21 07:56:27;;;;;;;0.90;0.85;;;;;;;;;;5042857;28;20133;-46
2022/08/21 07:58:53;;;;;;;2.50;0.93;;;;;;;;;;5045951;28;20401;-44
2022/08/21 08:01:19;;;;;;;7.95;1.10;;;;;;;;;;5042247;28;20460;-46
2022/08/21 08:03:45;;;;;;;3.25;0.80;;;;;;;;;;5048750;28;20035;-45
2022/08/21 08:06:12;;;;;;;1.40;1.00;;;;;;;;;;5046108;28;20017;-45
2022/08/21 08:08:39;;;;;;;3.80;0.98;;;;;;;;;;5044400;28;20028;-46
2022/08/21 08:11:05;;;;;;;2.03;0.75;;;;;;;;;;5045691;28;20049;-44
2022/08/21 08:13:30;;;;;;;3.08;1.00;;;;;;;;;;5045423;28;20049;-48
2022/08/21 08:15:56;;;;;;;2.30;1.02;;;;;;;;;;5041366;28;20617;-43
2022/08/21 08:18:22;;;;;;;2.25;0.93;;;;;;;;;;5043049;28;20541;-43
2022/08/21 08:20:48;;;;;;;1.10;0.98;;;;;;;;;;5045516;28;20047;-44
2022/08/21 08:23:14;;;;;;;2.80;1.20;;;;;;;;;;5039350;28;20047;-47
2022/08/21 08:25:40;;;;;;;0.98;0.80;;;;;;;;;;5040467;28;20662;-45
2022/08/21 08:28:06;;;;;;;1.65;1.23;;;;;;;;;;5043994;28;20068;-44
2022/08/21 08:30:33;;;;;;;4.20;1.00;;;;;;;;;;5038673;28;20576;-46
2022/08/21 08:32:59;;;;;;;3.15;1.52;;;;;;;;;;5041955;28;20021;-47
2022/08/21 08:35:26;;;;;;;3.33;1.42;;;;;;;;;;5042418;28;20039;-43
2022/08/21 08:37:52;;;;;;;1.67;1.02;;;;;;;;;;5038704;28;20461;-47
2022/08/21 08:40:25;;;;;;;1.73;0.90;;;;;;;;;;5041350;28;20191;-47
2022/08/21 08:42:50;;;;;;;4.35;1.17;;;;;;;;;;5040312;28;20064;-44
2022/08/21 08:45:21;;;;;;;4.07;0.98;;;;;;;;;;5042686;28;20033;-47
2022/08/21 08:48:08;;;;;;;2.13;1.10;;;;;;;;;;5039869;28;20033;-44
2022/08/21 08:50:40;;;;;;;1.95;1.05;;;;;;;;;;5039810;28;20033;-44
2022/08/21 08:53:08;;;;;;;;;;;;;;;;;;5045059;28;20056;-51
2022/08/21 08:55:37;;;;;;;2.80;1.30;;;;;;;;;;5035581;28;22470;-45
2022/08/21 08:58:03;;;;;;;3.60;1.42;;;;;;;;;;5039465;28;20060;-44
2022/08/21 09:00:30;;;;;;;1.63;1.30;;;;;;;;;;5041632;28;20033;-46
2022/08/21 09:02:59;;;;;;;1.58;0.93;;;;;;;;;;5040695;28;20021;-46
2022/08/21 09:05:26;;;;;;;1.85;1.30;;;;;;;;;;5041321;28;20044;-46
2022/08/21 09:08:19;;;;;;;1.77;1.27;;;;;;;;;;5039096;28;20092;-48
2022/08/21 09:11:27;;;;;;;2.00;1.00;;;;;;;;;;5042083;28;20036;-45
2022/08/21 09:14:10;;;;;;;1.95;1.05;;;;;;;;;;4998443;28;20556;-45
2022/08/21 09:16:54;;;;;;;2.28;1.20;;;;;;;;;;5002123;28;20112;-48
2022/08/21 09:19:20;;;;;;;2.00;1.15;;;;;;;;;;4999249;28;20022;-45
2022/08/21 09:21:51;;;;;;;2.10;1.20;;;;;;;;;;4996000;28;20064;-45
2022/08/21 09:24:40;;;;;;;2.38;1.20;;;;;;;;;;5001667;28;20427;-44
2022/08/21 09:27:10;;;;;;;4.57;1.65;;;;;;;;;;4991518;28;20414;-45
2022/08/21 09:29:39;;;;;;;1.77;1.33;;;;;;;;;;5002750;28;20088;-45
2022/08/21 09:32:18;;;;;;;3.65;1.35;;;;;;;;;;5000277;28;20092;-49
2022/08/21 09:35:04;;;;;;;1.40;1.00;;;;;;;;;;5001722;28;20036;-45
2022/08/21 09:37:34;;;;;;;1.75;1.00;;;;;;;;;;4999178;28;20035;-45
2022/08/21 09:40:03;;;;;;;8.43;1.30;;;;;;;;;;4997368;28;20026;-44
2022/08/21 09:42:31;;;;;;;2.47;1.30;;;;;;;;;;5001803;28;20048;-46
2022/08/21 09:45:11;;;;;;;1.80;1.20;;;;;;;;;;4997346;28;20386;-46
2022/08/21 09:47:37;;;;;;;1.40;1.05;;;;;;;;;;5000920;28;20026;-46
2022/08/21 09:50:13;;;;;;;1.65;1.23;;;;;;;;;;5033370;28;20454;-48
2022/08/21 09:52:49;;;;;;;4.82;1.40;;;;;;;;;;5041937;28;20029;-48
2022/08/21 09:57:38;;;;;;;2.92;1.33;;;;;;;;;;5043743;28;20041;-47
2022/08/21 09:58:06;;;;;;;3.45;1.23;;;;;;;;;;5037986;28;20385;-46
2022/08/21 10:00:35;;;;;;;1.10;1.00;;;;;;;;;;5040595;28;20492;-47
2022/08/21 10:03:18;;;;;;;2.85;1.40;;;;;;;;;;5044181;28;20034;-48
2022/08/21 10:06:05;;;;;;;1.70;1.17;;;;;;;;;;5043800;28;20108;-51
2022/08/21 10:08:32;;;;;;;1.40;1.02;;;;;;;;;;5044728;28;21802;-50
2022/08/21 10:11:14;;;;;;;1.60;1.23;;;;;;;;;;5050528;28;20099;-45
2022/08/21 10:13:52;;;;;;;0.95;0.85;;;;;;;;;;5047567;28;20021;-50
2022/08/21 10:16:59;;;;;;;0.95;0.95;;;;;;;;;;5047569;28;20828;-44
2022/08/21 10:19:43;;;;;;;1.60;0.77;;;;;;;;;;5049509;28;20481;-44
2022/08/21 10:22:47;;;;;;;0.90;0.90;;;;;;;;;;5048119;28;20040;-44
2022/08/21 10:25:40;;;;;;;2.08;1.23;;;;;;;;;;5041766;28;20653;-43
2022/08/21 10:28:23;;;;;;;1.02;0.80;;;;;;;;;;5046415;28;20028;-46
2022/08/21 10:30:49;;;;;;;1.20;1.10;;;;;;;;;;5048680;28;20163;-45
2022/08/21 10:33:20;;;;;;;2.28;1.48;;;;;;;;;;5049159;28;20499;-44
2022/08/21 10:36:04;;;;;;;2.80;1.38;;;;;;;;;;5044194;28;20397;-45
2022/08/21 10:38:49;;;;;;;1.65;1.10;;;;;;;;;;5045634;28;20116;-47
2022/08/21 10:41:36;;;;;;;1.27;0.98;;;;;;;;;;5045539;28;20040;-47
2022/08/21 10:44:22;;;;;;;1.85;1.20;;;;;;;;;;5041359;28;20558;-44
2022/08/21 10:47:11;;;;;;;2.25;0.85;;;;;;;;;;5042520;28;20025;-44
2022/08/21 10:49:54;;;;;;;1.73;1.00;;;;;;;;;;5047427;28;20037;-46
2022/08/21 10:52:30;;;;;;;2.35;1.17;;;;;;;;;;5047678;28;20074;-44
2022/08/21 10:55:09;;;;;;;2.83;1.17;;;;;;;;;;5049509;28;20037;-44
2022/08/21 10:57:54;;;;;;;2.22;1.10;;;;;;;;;;5047564;28;20037;-48
2022/08/21 11:00:40;;;;;;;1.45;1.10;;;;;;;;;;5046523;28;20551;-45
2022/08/21 11:03:17;;;;;;;1.30;1.20;;;;;;;;;;5044379;28;20555;-44
2022/08/21 11:05:58;;;;;;;1.88;1.45;;;;;;;;;;5047044;28;20035;-44
2022/08/21 11:08:30;;;;;;;2.13;1.75;;;;;;;;;;5041862;28;20033;-47
2022/08/21 11:11:13;;;;;;;1.55;1.08;;;;;;;;;;5045048;28;20046;-44
2022/08/21 11:13:45;;;;;;;4.00;1.10;;;;;;;;;;5042640;28;20055;-47
2022/08/21 11:16:16;;;;;;;5.15;1.10;;;;;;;;;;5049366;28;20029;-44
2022/08/21 11:18:48;;;;;;;1.80;1.00;;;;;;;;;;5045745;28;20056;-47
2022/08/21 11:21:33;;;;;;;1.77;1.30;;;;;;;;;;5043852;28;20020;-45
2022/08/21 11:24:26;;;;;;;1.25;1.15;;;;;;;;;;5047196;28;20028;-49
2022/08/21 11:27:01;;;;;;;1.50;1.10;;;;;;;;;;5049118;28;20021;-44
2022/08/21 11:29:34;;;;;;;1.95;1.25;;;;;;;;;;5047823;28;20082;-44
2022/08/21 11:32:13;;;;;;;2.38;1.33;;;;;;;;;;5029208;28;20111;-45
2022/08/21 11:35:01;;;;;;;0.93;0.90;;;;;;;;;;5045661;28;20126;-44
2022/08/21 11:37:40;;;;;;;2.15;0.88;;;;;;;;;;5047134;28;20481;-48
2022/08/21 11:40:20;;;;;;;1.95;0.95;;;;;;;;;;5044675;28;20075;-44
2022/08/21 11:43:00;;;;;;;2.15;1.00;;;;;;;;;;5045756;28;20029;-46
2022/08/21 11:46:20;;;;;;;2.83;1.10;;;;;;;;;;5046095;28;20029;-44
2022/08/21 11:49:00;;;;;;;3.20;1.25;;;;;;;;;;4966638;28;20121;-45
2022/08/21 11:51:38;;;;;;;1.05;0.95;;;;;;;;;;4966812;28;20046;-47
2022/08/21 11:54:19;;;;;;;0.90;0.80;;;;;;;;;;4966849;28;20487;-47
2022/08/21 11:57:08;;;;;;;0.98;0.75;;;;;;;;;;4967136;28;20491;-45
2022/08/21 11:59:45;;;;;;;0.85;0.77;;;;;;;;;;4966473;28;20039;-44
2022/08/21 12:02:15;;;;;;;1.23;0.80;;;;;;;;;;4967210;28;20049;-44
2022/08/21 12:04:47;;;;;;;1.23;1.10;;;;;;;;;;4963893;28;20062;-49
2022/08/21 12:07:27;;;;;;;0.50;0.50;;;;;;;;;;4966789;28;20035;-49
2022/08/21 12:09:57;;;;;;;1.70;0.90;;;;;;;;;;4962775;28;20034;-47
2022/08/21 12:12:31;;;;;;;7.57;1.00;;;;;;;;;;4966712;28;20088;-45
2022/08/21 12:15:21;;;;;;;2.65;1.00;;;;;;;;;;4966706;28;20027;-45
2022/08/21 12:18:05;;;;;;;3.35;0.73;;;;;;;;;;4963035;28;20027;-46
2022/08/21 12:20:40;;;;;;;2.35;0.75;;;;;;;;;;4967760;28;20058;-47
2022/08/21 12:23:18;;;;;;;3.72;0.88;;;;;;;;;;5023927;28;20095;-47
2022/08/21 12:26:01;;;;;;;1.67;0.98;;;;;;;;;;5043950;28;21641;-44
2022/08/21 12:28:29;;;;;;;1.05;0.85;;;;;;;;;;5046965;28;20064;-48
2022/08/21 12:30:56;;;;;;;0.80;0.80;;;;;;;;;;5046134;28;20115;-48
2022/08/21 12:33:30;;;;;;;1.70;1.02;;;;;;;;;;5045432;28;20037;-45
2022/08/21 12:36:11;;;;;;;1.38;1.05;;;;;;;;;;5043766;28;20036;-49
2022/08/21 12:38:56;;;;;;;;;;;;;;;;;;5046615;28;20025;-45
2022/08/21 12:41:31;;;;;;;2.42;0.90;;;;;;;;;;5047253;28;19921;-46
2022/08/21 12:44:04;;;;;;;1.98;0.82;;;;;;;;;;5043704;28;20041;-44
2022/08/21 12:46:36;;;;;;;4.22;1.15;;;;;;;;;;5045109;28;20527;-44
2022/08/21 12:49:21;;;;;;;2.58;1.05;;;;;;;;;;5042884;28;20163;-50
2022/08/21 12:52:02;;;;;;;0.57;0.57;;;;;;;;;;5044710;28;20024;-45
2022/08/21 12:54:30;;;;;;;1.10;1.00;;;;;;;;;;5044570;28;20082;-45
2022/08/21 12:56:59;;;;;;;1.15;0.80;;;;;;;;;;5044162;28;20033;-44
2022/08/21 12:59:25;;;;;;;3.22;1.27;;;;;;;;;;5043704;28;20033;-46
2022/08/21 13:01:54;;;;;;;0.60;0.60;;;;;;;;;;5044661;28;20082;-47
2022/08/21 13:04:36;;;;;;;0.63;0.50;;;;;;;;;;5046197;28;20029;-45
2022/08/21 13:07:05;;;;;;;;;;;;;;;;;;5044170;28;20780;-48
2022/08/21 13:09:31;;;;;;;1.23;0.90;;;;;;;;;;5049108;28;20248;-48
2022/08/21 13:11:58;;;;;;;1.27;0.73;;;;;;;;;;5043108;28;20033;-46
2022/08/21 13:14:40;;;;;;;4.95;0.68;;;;;;;;;;5043173;28;20051;-44
2022/08/21 13:17:07;;;;;;;1.20;0.82;;;;;;;;;;5043354;28;20099;-46
2022/08/21 13:19:33;;;;;;;3.42;1.00;;;;;;;;;;5047398;28;20032;-47
2022/08/21 13:22:00;;;;;;;1.38;1.00;;;;;;;;;;5043768;28;20025;-46
2022/08/21 13:24:36;;;;;;;2.28;1.05;;;;;;;;;;5043747;28;20028;-45
2022/08/21 13:27:03;;;;;;;0.65;0.60;;;;;;;;;;5045574;28;20035;-44
2022/08/21 13:29:31;;;;;;;1.48;1.00;;;;;;;;;;5044332;28;20025;-49
2022/08/21 13:32:06;;;;;;;1.63;1.00;;;;;;;;;;5045216;28;20162;-50
2022/08/21 13:34:37;;;;;;;0.75;0.75;;;;;;;;;;5043996;28;20028;-48
2022/08/21 13:37:08;;;;;;;1.85;0.98;;;;;;;;;;5044155;28;20485;-45
2022/08/21 13:39:34;;;;;;;3.90;0.90;;;;;;;;;;5043566;28;20037;-45
2022/08/21 13:42:03;;;;;;;2.58;0.82;;;;;;;;;;5042689;28;20560;-46
2022/08/21 13:44:43;;;;;;;1.40;0.80;;;;;;;;;;5042297;28;20030;-47
2022/08/21 13:47:11;;;;;;;0.65;0.65;;;;;;;;;;5045302;28;20057;-48
2022/08/21 13:49:41;;;;;;;2.22;0.70;;;;;;;;;;5041075;28;20029;-47
2022/08/21 13:52:25;;;;;;;0.83;0.73;;;;;;;;;;5041768;28;20061;-46
2022/08/21 13:54:59;;;;;;;1.13;0.95;;;;;;;;;;5044360;28;20282;-47
2022/08/21 13:57:33;;;;;;;0.88;0.80;;;;;;;;;;5044022;28;20045;-45
2022/08/21 14:00:18;;;;;;;0.95;0.70;;;;;;;;;;5043756;28;20373;-45
2022/08/21 14:02:49;;;;;;;1.10;0.80;;;;;;;;;;5038640;28;20106;-47
2022/08/21 14:05:29;;;;;;;1.80;0.80;;;;;;;;;;5045504;28;20108;-49
2022/08/21 14:08:30;;;;;;;1.20;1.02;;;;;;;;;;5042423;28;20044;-49
2022/08/21 14:10:57;;;;;;;1.58;0.98;;;;;;;;;;5057164;28;20029;-50
2022/08/21 14:13:37;;;;;;;0.70;0.63;;;;;;;;;;5027578;28;20040;-47
2022/08/21 14:16:11;;;;;;;1.85;0.90;;;;;;;;;;5045010;28;20025;-45
2022/08/21 14:18:49;;;;;;;1.77;0.80;;;;;;;;;;5043820;28;20021;-50
2022/08/21 14:21:29;;;;;;;2.75;1.48;;;;;;;;;;5045504;28;20040;-51
2022/08/21 14:24:09;;;;;;;1.33;1.05;;;;;;;;;;5043270;28;20029;-45
2022/08/21 14:26:43;;;;;;;1.52;1.05;;;;;;;;;;5042650;28;20132;-50
2022/08/21 14:29:10;;;;;;;4.95;0.82;;;;;;;;;;5043441;28;20029;-47
2022/08/21 14:31:36;;;;;;;1.10;0.55;;;;;;;;;;5044207;28;20041;-47
2022/08/21 14:34:02;;;;;;;0.88;0.63;;;;;;;;;;5042303;28;20036;-44
2022/08/21 14:36:28;;;;;;;1.20;0.90;;;;;;;;;;5042201;28;20037;-47
2022/08/21 14:38:54;;;;;;;7.88;1.15;;;;;;;;;;5040915;28;20045;-47
2022/08/21 14:41:23;;;;;;;1.13;1.02;;;;;;;;;;5045632;28;20033;-46
2022/08/21 14:43:50;;;;;;;0.85;0.80;;;;;;;;;;5043616;28;20399;-45
2022/08/21 14:46:26;;;;;;;2.33;0.80;;;;;;;;;;5045423;28;20032;-48
2022/08/21 14:48:52;;;;;;;1.42;0.93;;;;;;;;;;5043154;28;20040;-44
2022/08/21 14:51:18;;;;;;;1.55;1.00;;;;;;;;;;5046191;28;20025;-52
2022/08/21 14:53:44;;;;;;;3.50;0.93;;;;;;;;;;5042341;28;20037;-45
2022/08/21 14:56:11;;;;;;;3.25;0.90;;;;;;;;;;5048112;28;20383;-47
2022/08/21 14:58:40;;;;;;;1.35;1.25;;;;;;;;;;5047902;28;20037;-45
2022/08/21 15:01:08;;;;;;;5.63;1.10;;;;;;;;;;5046837;28;20037;-49
2022/08/21 15:03:34;;;;;;;3.00;1.02;;;;;;;;;;5047850;28;20470;-51